Time;durP1;ratioP1;P1;durP2;ratioP2;P2;SDS_P1;SDS_P2;PMS_P1;PMS_P2;Temp;Humidity;BMP_temperature;BMP_pressure;BME280_temperature;BME280_humidity;BME280_pressure;Samples;Min_cycle;Max_cycle;Signal;HPM_P1;HPM_P2
2023/01/24 00:02:05;;;;;;;20.47;18.50;;;6.00;99.90;;;;;;10521739;28;20300;-79
2023/01/24 00:07:07;;;;;;;22.50;20.20;;;6.00;99.90;;;;;;10518761;28;20234;-79
2023/01/24 00:12:10;;;;;;;22.40;20.20;;;6.00;99.90;;;;;;10523564;28;20208;-79
2023/01/24 00:17:12;;;;;;;21.57;19.40;;;6.00;99.90;;;;;;10513713;28;20687;-79
2023/01/24 00:22:14;;;;;;;20.50;18.53;;;6.00;99.90;;;;;;10516814;28;20295;-79
2023/01/24 00:27:18;;;;;;;21.43;19.43;;;6.00;99.90;;;;;;10515421;28;21065;-78
2023/01/24 00:32:20;;;;;;;22.00;19.87;;;6.00;99.90;;;;;;10534863;28;20210;-79
2023/01/24 00:37:22;;;;;;;20.08;18.08;;;6.00;99.90;;;;;;10516133;28;20231;-79
2023/01/24 00:42:25;;;;;;;18.63;16.93;;;6.10;99.90;;;;;;10501098;28;20220;-79
2023/01/24 00:47:27;;;;;;;20.20;18.30;;;6.20;99.90;;;;;;10516448;28;20219;-79
2023/01/24 00:52:29;;;;;;;20.13;18.17;;;6.10;99.90;;;;;;10515196;28;20234;-79
2023/01/24 00:57:33;;;;;;;19.30;17.40;;;6.00;99.90;;;;;;10515274;28;20259;-78
2023/01/24 01:02:35;;;;;;;18.93;17.03;;;5.90;99.90;;;;;;10536215;28;20262;-79
2023/01/24 01:07:38;;;;;;;21.08;18.88;;;5.90;99.90;;;;;;10524088;28;20218;-78
2023/01/24 01:12:41;;;;;;;18.53;16.83;;;6.10;99.90;;;;;;10529080;28;20231;-79
2023/01/24 01:17:44;;;;;;;19.10;17.30;;;6.10;99.90;;;;;;10525256;28;20238;-79
2023/01/24 01:22:46;;;;;;;20.30;18.30;;;6.10;99.90;;;;;;10526168;28;20211;-79
2023/01/24 01:27:49;;;;;;;20.30;18.40;;;6.00;99.90;;;;;;10521484;28;20215;-78
2023/01/24 01:32:52;;;;;;;19.90;18.00;;;6.00;99.90;;;;;;10524968;28;20262;-78
2023/01/24 01:37:54;;;;;;;19.97;17.87;;;6.00;99.90;;;;;;10533078;28;21225;-78
2023/01/24 01:42:57;;;;;;;19.70;17.80;;;6.00;99.90;;;;;;10538013;28;20207;-79
2023/01/24 01:48:00;;;;;;;19.45;17.55;;;6.20;99.90;;;;;;10523567;28;20725;-81
2023/01/24 01:53:06;;;;;;;19.60;17.73;;;6.40;99.90;;;;;;10508798;28;20269;-81
2023/01/24 01:58:10;;;;;;;19.70;17.87;;;6.30;99.90;;;;;;10537331;28;20215;-80
2023/01/24 02:08:36;;;;;;;20.83;18.83;;;6.30;99.90;;;;;;10523719;28;20227;-81
2023/01/24 02:13:43;;;;;;;18.90;17.10;;;6.30;99.90;;;;;;10537255;28;20242;-81
2023/01/24 02:18:45;;;;;;;20.77;18.77;;;6.20;99.90;;;;;;10539054;28;20235;-81
2023/01/24 02:23:54;;;;;;;22.13;20.03;;;6.10;99.90;;;;;;10541217;28;20210;-81
2023/01/24 02:29:01;;;;;;;21.53;19.30;;;6.10;99.90;;;;;;10539511;28;20236;-81
2023/01/24 02:34:03;;;;;;;22.20;20.03;;;6.10;99.90;;;;;;10552844;28;20209;-81
2023/01/24 02:39:10;;;;;;;21.93;19.83;;;6.10;99.90;;;;;;10528292;28;20249;-81
2023/01/24 02:44:18;;;;;;;20.87;18.83;;;6.00;99.90;;;;;;10541666;28;20252;-82
2023/01/24 02:49:20;;;;;;;20.17;18.23;;;6.00;99.90;;;;;;10523228;28;20227;-81
2023/01/24 02:54:23;;;;;;;25.70;20.00;;;6.00;99.90;;;;;;10513533;28;20202;-82
2023/01/24 02:59:27;;;;;;;20.60;18.50;;;6.00;99.90;;;;;;10547293;28;20224;-77
2023/01/24 03:04:30;;;;;;;20.20;18.33;;;6.00;99.90;;;;;;10533029;28;20204;-77
2023/01/24 03:09:35;;;;;;;21.30;19.10;;;6.00;99.90;;;;;;10548831;28;20230;-79
2023/01/24 03:36:06;;;;;;;21.13;18.93;;;6.10;99.90;;;;;;10530402;28;20231;-79
2023/01/24 03:41:10;;;;;;;22.43;20.13;;;6.00;99.90;;;;;;10539636;28;20227;-82
2023/01/24 03:46:15;;;;;;;20.00;18.10;;;6.00;99.90;;;;;;10536924;28;20231;-80
2023/01/24 03:56:44;;;;;;;19.17;17.27;;;6.00;99.90;;;;;;10544794;28;20235;-81
2023/01/24 04:01:47;;;;;;;20.60;18.48;;;5.90;99.90;;;;;;10534884;28;20678;-82
2023/01/24 04:06:55;;;;;;;20.30;18.30;;;6.10;99.90;;;;;;10539372;28;20230;-79
2023/01/24 04:11:58;;;;;;;21.03;18.97;;;6.10;99.90;;;;;;10532590;28;20261;-78
2023/01/24 04:17:03;;;;;;;21.70;19.50;;;6.10;99.90;;;;;;10535995;28;20235;-80
2023/01/24 04:22:16;;;;;;;20.13;18.13;;;6.10;99.90;;;;;;10521570;28;20275;-81
2023/01/24 04:27:19;;;;;;;22.67;20.27;;;6.00;99.90;;;;;;10496277;28;20224;-80
2023/01/24 04:32:34;;;;;;;21.93;19.63;;;5.90;99.90;;;;;;10513709;28;20665;-80
2023/01/24 04:37:41;;;;;;;20.90;18.80;;;6.00;99.90;;;;;;10526745;28;20318;-81
2023/01/24 04:42:45;;;;;;;20.33;18.27;;;5.90;99.90;;;;;;10539464;28;20208;-80
2023/01/24 04:47:48;;;;;;;21.60;19.30;;;5.90;99.90;;;;;;10539869;28;20211;-81
2023/01/24 04:52:52;;;;;;;21.00;18.77;;;6.00;99.90;;;;;;10537105;28;20261;-81
2023/01/24 04:57:54;;;;;;;23.15;20.80;;;5.90;99.90;;;;;;10544602;28;20224;-81
2023/01/24 05:02:59;;;;;;;24.95;22.38;;;6.10;99.90;;;;;;10538948;28;20215;-79
2023/01/24 05:08:02;;;;;;;21.43;19.23;;;6.30;99.90;;;;;;10533921;28;20234;-80
2023/01/24 05:13:04;;;;;;;20.57;18.37;;;6.30;99.90;;;;;;10516132;28;20200;-78
2023/01/24 05:18:09;;;;;;;22.67;20.37;;;6.20;99.90;;;;;;10531859;28;20314;-80
2023/01/24 05:23:12;;;;;;;20.87;18.73;;;6.10;99.90;;;;;;10538923;28;20204;-78
2023/01/24 05:28:18;;;;;;;22.87;20.57;;;6.00;99.90;;;;;;10532560;28;20225;-79
2023/01/24 05:33:24;;;;;;;20.53;18.40;;;6.00;99.90;;;;;;10520752;28;20224;-78
2023/01/24 05:38:27;;;;;;;22.57;20.17;;;6.00;99.90;;;;;;10532469;28;20233;-78
2023/01/24 05:43:29;;;;;;;21.67;19.37;;;6.00;99.90;;;;;;10510754;28;20231;-79
2023/01/24 05:48:34;;;;;;;20.50;18.30;;;6.00;99.90;;;;;;10497726;28;20691;-79
2023/01/24 05:53:38;;;;;;;23.27;19.93;;;6.00;99.90;;;;;;10508850;28;20210;-77
2023/01/24 05:58:45;;;;;;;23.13;20.60;;;5.90;99.90;;;;;;10498706;28;20231;-78
2023/01/24 06:03:53;;;;;;;21.80;19.60;;;5.90;99.90;;;;;;10513215;28;20303;-78
2023/01/24 06:08:55;;;;;;;21.15;18.85;;;5.90;99.90;;;;;;10515746;28;21250;-78
2023/01/24 06:13:58;;;;;;;22.15;19.67;;;6.10;99.90;;;;;;10522838;28;21046;-78
2023/01/24 06:19:03;;;;;;;23.40;21.00;;;6.30;99.90;;;;;;10514694;28;20228;-78
2023/01/24 06:24:09;;;;;;;21.90;19.60;;;6.30;99.90;;;;;;10515253;28;20208;-77
2023/01/24 06:29:24;;;;;;;25.43;22.13;;;6.10;99.90;;;;;;10533068;28;20220;-78
2023/01/24 06:34:46;;;;;;;22.27;19.87;;;6.00;99.90;;;;;;10512983;28;20212;-77
2023/01/24 06:39:52;;;;;;;22.97;20.60;;;5.90;99.90;;;;;;10515190;28;20599;-79
2023/01/24 06:44:54;;;;;;;21.50;19.20;;;5.90;99.90;;;;;;10512982;28;20200;-78
2023/01/24 06:49:57;;;;;;;23.03;20.37;;;5.90;99.90;;;;;;10517918;28;20230;-79
2023/01/24 06:55:00;;;;;;;22.77;20.33;;;5.90;99.90;;;;;;10520373;28;20947;-79
2023/01/24 07:00:02;;;;;;;25.03;22.53;;;5.90;99.90;;;;;;10521805;28;20654;-78
2023/01/24 07:05:06;;;;;;;26.23;23.43;;;5.80;99.90;;;;;;10517578;28;20293;-78
2023/01/24 07:10:10;;;;;;;25.40;22.80;;;5.90;99.90;;;;;;10519143;28;20870;-77
2023/01/24 07:15:12;;;;;;;27.90;22.33;;;5.80;99.90;;;;;;10518638;28;20235;-77
2023/01/24 07:20:16;;;;;;;25.42;22.73;;;5.80;99.90;;;;;;10515582;28;20712;-78
2023/01/24 07:25:21;;;;;;;23.70;21.20;;;5.90;99.90;;;;;;10519837;28;20304;-80
2023/01/24 07:30:23;;;;;;;27.33;22.60;;;5.90;99.90;;;;;;10515063;28;20389;-80
2023/01/24 07:35:26;;;;;;;24.93;22.27;;;5.90;99.90;;;;;;10498397;28;20215;-79
2023/01/24 07:40:28;;;;;;;23.63;21.13;;;5.80;99.90;;;;;;10512763;28;20234;-78
2023/01/24 07:45:31;;;;;;;23.47;20.97;;;5.80;99.90;;;;;;10516787;28;20565;-79
2023/01/24 07:50:35;;;;;;;24.80;22.20;;;5.90;99.90;;;;;;10519631;28;20689;-79
2023/01/24 07:55:37;;;;;;;23.77;21.27;;;5.80;99.90;;;;;;10517049;28;20216;-79
2023/01/24 08:00:40;;;;;;;24.60;21.17;;;5.80;99.90;;;;;;10497925;28;20255;-79
2023/01/24 08:05:43;;;;;;;23.50;21.00;;;5.90;99.90;;;;;;10532985;28;20239;-80
2023/01/24 08:10:46;;;;;;;22.83;20.50;;;6.00;99.90;;;;;;10513313;28;20239;-79
2023/01/24 08:15:48;;;;;;;22.93;20.50;;;6.00;99.90;;;;;;10523564;28;20235;-79
2023/01/24 08:20:55;;;;;;;22.77;20.37;;;5.90;99.90;;;;;;10532932;28;20231;-80
2023/01/24 08:25:58;;;;;;;23.27;20.80;;;6.00;99.90;;;;;;10531672;28;20219;-79
2023/01/24 08:31:00;;;;;;;22.57;20.27;;;6.00;99.90;;;;;;10530353;28;21313;-79
2023/01/24 08:36:04;;;;;;;25.20;20.30;;;6.00;99.90;;;;;;10509847;28;20251;-79
2023/01/24 08:41:07;;;;;;;23.07;20.20;;;6.00;99.90;;;;;;10541938;28;20314;-79
2023/01/24 08:46:09;;;;;;;22.33;19.90;;;6.10;99.90;;;;;;10531843;28;20227;-77
2023/01/24 08:51:12;;;;;;;21.83;19.53;;;6.10;99.90;;;;;;10531501;28;20202;-78
2023/01/24 08:56:14;;;;;;;21.53;19.23;;;6.10;99.90;;;;;;10520525;28;21453;-79
2023/01/24 09:01:17;;;;;;;19.52;17.52;;;6.10;99.90;;;;;;10524761;28;20232;-78
2023/01/24 09:06:20;;;;;;;23.40;18.80;;;6.30;99.90;;;;;;10524257;28;20289;-79
2023/01/24 09:11:23;;;;;;;21.93;19.20;;;6.50;99.90;;;;;;10529378;28;20211;-80
2023/01/24 09:16:27;;;;;;;22.27;19.20;;;6.50;99.90;;;;;;10529511;28;20596;-78
2023/01/24 09:21:30;;;;;;;23.77;20.77;;;6.40;99.90;;;;;;10533516;28;20255;-79
2023/01/24 09:26:32;;;;;;;22.00;19.60;;;6.40;99.90;;;;;;10529309;28;20224;-79
2023/01/24 09:31:34;;;;;;;21.70;19.60;;;6.40;99.90;;;;;;10524376;28;20305;-79
2023/01/24 09:36:37;;;;;;;22.80;20.37;;;6.40;99.90;;;;;;10529819;28;20238;-79
2023/01/24 09:41:49;;;;;;;20.87;18.73;;;6.30;99.90;;;;;;10523118;28;20232;-78
2023/01/24 09:46:54;;;;;;;22.53;20.30;;;6.40;99.90;;;;;;10531319;28;20227;-78
2023/01/24 09:51:57;;;;;;;19.55;17.52;;;6.30;99.90;;;;;;10537040;28;20296;-80
2023/01/24 09:56:59;;;;;;;19.77;17.73;;;6.50;99.90;;;;;;10524858;28;20228;-80
2023/01/24 10:02:03;;;;;;;19.43;17.53;;;6.60;99.90;;;;;;10552694;28;20236;-79
2023/01/24 10:07:41;;;;;;;18.50;16.57;;;6.50;99.90;;;;;;10537808;28;20227;-80
2023/01/24 10:12:51;;;;;;;19.43;17.03;;;6.50;99.90;;;;;;10526456;28;20322;-78
2023/01/24 10:18:06;;;;;;;23.00;17.93;;;6.50;99.90;;;;;;10524164;28;20224;-79
2023/01/24 10:23:15;;;;;;;17.53;15.70;;;6.50;99.90;;;;;;10529905;28;20267;-79
2023/01/24 10:28:22;;;;;;;18.17;16.33;;;6.50;99.90;;;;;;10519229;28;20227;-79
2023/01/24 10:33:30;;;;;;;17.97;16.03;;;6.60;99.90;;;;;;10521687;28;20231;-78
2023/01/24 10:38:34;;;;;;;17.30;15.60;;;6.60;99.90;;;;;;10521360;28;20251;-79
2023/01/24 10:43:38;;;;;;;17.70;15.60;;;6.60;99.90;;;;;;10518744;28;20201;-78
2023/01/24 10:48:45;;;;;;;16.33;14.73;;;6.60;99.90;;;;;;10517650;28;20323;-80
2023/01/24 10:53:49;;;;;;;16.50;14.77;;;6.80;99.90;;;;;;10495064;28;21312;-79
2023/01/24 10:59:00;;;;;;;15.80;13.80;;;6.90;99.90;;;;;;10501873;28;20277;-79
2023/01/24 11:04:16;;;;;;;18.20;14.90;;;6.80;99.90;;;;;;10518454;28;20710;-80
2023/01/24 11:09:23;;;;;;;16.73;15.13;;;7.00;99.80;;;;;;10516112;28;20772;-79
2023/01/24 11:14:27;;;;;;;16.70;15.00;;;7.00;99.90;;;;;;10523824;28;20210;-78
2023/01/24 11:19:32;;;;;;;15.27;13.77;;;7.00;99.90;;;;;;10516293;28;20710;-79
2023/01/24 11:24:43;;;;;;;12.15;11.05;;;7.00;99.90;;;;;;10513776;28;20200;-80
2023/01/24 11:30:04;;;;;;;15.03;12.93;;;7.10;99.90;;;;;;10522276;28;20203;-79
2023/01/24 11:35:11;;;;;;;15.87;14.33;;;7.20;99.90;;;;;;10514964;28;20336;-79
2023/01/24 11:40:30;;;;;;;17.02;14.85;;;7.10;99.90;;;;;;10513703;28;20692;-78
2023/01/24 11:45:47;;;;;;;14.90;13.40;;;7.30;99.90;;;;;;10513912;28;20255;-79
2023/01/24 11:51:01;;;;;;;16.03;14.47;;;7.30;99.90;;;;;;10514619;28;20659;-78
2023/01/24 11:56:16;;;;;;;16.57;14.87;;;7.30;99.90;;;;;;10514838;28;20251;-79
2023/01/24 12:01:27;;;;;;;17.03;14.53;;;7.20;99.90;;;;;;10515995;28;20223;-79
2023/01/24 12:06:37;;;;;;;16.90;14.70;;;7.20;99.90;;;;;;10519553;28;20251;-78
2023/01/24 12:11:46;;;;;;;15.18;13.57;;;7.20;99.90;;;;;;10517159;28;20196;-80
2023/01/24 12:16:59;;;;;;;16.13;14.50;;;7.40;99.90;;;;;;10515845;28;20234;-78
2023/01/24 12:22:03;;;;;;;16.27;14.70;;;7.40;99.90;;;;;;10513342;28;20224;-79
2023/01/24 12:27:12;;;;;;;16.20;14.57;;;7.30;99.90;;;;;;10515640;28;20231;-79
2023/01/24 12:32:22;;;;;;;18.03;15.07;;;7.30;99.90;;;;;;10510325;28;21182;-80
2023/01/24 12:37:29;;;;;;;15.52;13.98;;;7.20;99.90;;;;;;10519802;28;20232;-80
2023/01/24 12:42:47;;;;;;;14.53;13.13;;;7.30;99.90;;;;;;10515428;28;20252;-78
2023/01/24 12:47:55;;;;;;;14.07;12.68;;;7.30;99.90;;;;;;10516349;28;20220;-79
2023/01/24 12:53:06;;;;;;;16.23;14.70;;;7.30;99.90;;;;;;10519462;28;20213;-78
2023/01/24 12:58:16;;;;;;;18.20;15.97;;;7.30;99.90;;;;;;10501755;28;20220;-78
2023/01/24 13:03:38;;;;;;;14.97;13.47;;;7.20;99.90;;;;;;10522146;28;20215;-80
2023/01/24 13:08:50;;;;;;;15.47;13.20;;;7.10;99.90;;;;;;10524605;28;20290;-79
2023/01/24 13:14:04;;;;;;;15.55;13.70;;;7.00;99.90;;;;;;10522881;28;20204;-80
2023/01/24 13:19:15;;;;;;;14.07;12.67;;;7.10;99.90;;;;;;10510001;28;20596;-78
2023/01/24 13:24:31;;;;;;;15.70;14.20;;;7.10;99.90;;;;;;10523875;28;20211;-77
2023/01/24 13:29:49;;;;;;;15.77;14.17;;;7.00;99.80;;;;;;10529941;28;20307;-79
2023/01/24 13:34:56;;;;;;;14.00;12.70;;;6.90;99.90;;;;;;10537004;28;20249;-79
2023/01/24 13:40:04;;;;;;;14.33;12.60;;;6.80;99.90;;;;;;10559818;22;20247;-79
2023/01/24 13:45:47;;;;;;;14.37;12.77;;;6.80;99.90;;;;;;10522881;28;20225;-79
2023/01/24 13:51:31;;;;;;;13.10;11.80;;;6.70;99.90;;;;;;10484109;28;20203;-82
2023/01/24 13:56:53;;;;;;;16.57;14.80;;;6.70;99.90;;;;;;10513287;28;20220;-82
2023/01/24 14:01:57;;;;;;;13.67;12.37;;;6.70;99.90;;;;;;10498177;28;20317;-80
2023/01/24 14:06:59;;;;;;;13.90;12.60;;;6.70;99.90;;;;;;10474972;28;20556;-82
2023/01/24 14:12:04;;;;;;;14.97;13.40;;;6.80;99.90;;;;;;10484649;28;20548;-81
2023/01/24 14:17:46;;;;;;;15.80;14.20;;;6.80;99.90;;;;;;10488883;28;20255;-82
2023/01/24 14:22:51;;;;;;;15.43;13.13;;;6.80;99.90;;;;;;10498047;28;20238;-82
2023/01/24 14:27:58;;;;;;;13.90;12.50;;;6.70;99.90;;;;;;10484499;28;20236;-81
2023/01/24 14:33:12;;;;;;;14.43;13.00;;;6.80;99.90;;;;;;10499170;28;20446;-82
2023/01/24 14:38:17;;;;;;;15.03;12.90;;;6.80;99.90;;;;;;10501162;28;20604;-81
2023/01/24 14:43:20;;;;;;;13.97;12.43;;;6.80;99.90;;;;;;10510119;28;20293;-79
2023/01/24 14:48:25;;;;;;;13.87;12.43;;;6.80;99.90;;;;;;10497203;28;20223;-81
2023/01/24 14:53:29;;;;;;;15.20;13.70;;;6.70;99.80;;;;;;10491833;28;20275;-82
2023/01/24 14:58:31;;;;;;;14.20;12.77;;;6.50;99.90;;;;;;10496275;28;20232;-82
2023/01/24 15:03:35;;;;;;;15.50;12.67;;;6.50;99.90;;;;;;10497039;28;20229;-82
2023/01/24 15:08:37;;;;;;;13.73;12.40;;;6.40;99.90;;;;;;10493526;28;20225;-82
2023/01/24 15:13:44;;;;;;;14.40;12.90;;;6.40;99.90;;;;;;10479155;28;20207;-82
2023/01/24 15:18:51;;;;;;;15.47;13.93;;;6.40;99.90;;;;;;10475843;28;20623;-81
2023/01/24 15:23:55;;;;;;;17.17;14.57;;;6.40;99.90;;;;;;10486861;28;20720;-81
2023/01/24 15:28:57;;;;;;;13.93;12.53;;;6.30;99.90;;;;;;10485806;28;20224;-82
2023/01/24 15:34:02;;;;;;;15.30;13.77;;;6.30;99.90;;;;;;10470905;28;20203;-82
2023/01/24 15:39:04;;;;;;;17.27;13.63;;;6.30;99.90;;;;;;10485919;28;20235;-82
2023/01/24 15:44:08;;;;;;;16.23;14.57;;;6.50;99.90;;;;;;10480463;28;20221;-79
2023/01/24 15:49:36;;;;;;;16.90;14.57;;;6.50;99.90;;;;;;10479511;28;20544;-79
2023/01/24 15:54:40;;;;;;;16.90;15.10;;;6.40;99.90;;;;;;10499330;28;20204;-78
2023/01/24 15:59:47;;;;;;;16.67;14.97;;;6.40;99.90;;;;;;10489239;28;20669;-79
2023/01/24 16:04:50;;;;;;;17.57;15.50;;;6.30;99.90;;;;;;10499629;28;20236;-78
2023/01/24 16:09:55;;;;;;;19.00;16.87;;;6.30;99.90;;;;;;10495019;28;20212;-78
2023/01/24 16:14:57;;;;;;;18.77;16.80;;;6.40;99.90;;;;;;10495159;28;20208;-79
2023/01/24 16:20:00;;;;;;;18.90;16.90;;;6.40;99.90;;;;;;10490962;28;20341;-78
2023/01/24 16:25:02;;;;;;;19.43;17.43;;;6.30;99.90;;;;;;10481078;28;20215;-78
2023/01/24 16:30:06;;;;;;;19.20;15.90;;;6.40;99.90;;;;;;10474477;28;20212;-79
2023/01/24 16:35:09;;;;;;;17.80;16.03;;;6.40;99.90;;;;;;10489517;28;20207;-79
2023/01/24 16:40:14;;;;;;;20.90;17.73;;;6.30;99.90;;;;;;10499607;28;20291;-79
2023/01/24 16:45:18;;;;;;;19.30;17.30;;;6.30;99.90;;;;;;10506200;28;20211;-79
2023/01/24 16:50:22;;;;;;;19.00;17.00;;;6.20;99.90;;;;;;10507655;28;20287;-80
2023/01/24 16:55:24;;;;;;;19.87;17.27;;;6.10;99.90;;;;;;10487231;28;20802;-80
2023/01/24 17:00:26;;;;;;;21.73;19.10;;;6.10;99.90;;;;;;10481340;28;20378;-81
2023/01/24 17:05:30;;;;;;;21.27;19.10;;;6.20;99.90;;;;;;10487332;28;20200;-79
2023/01/24 17:10:33;;;;;;;21.77;19.17;;;6.20;99.90;;;;;;10477855;28;20314;-78
2023/01/24 17:15:36;;;;;;;21.07;18.87;;;6.10;99.90;;;;;;10483785;28;20255;-80
2023/01/24 17:20:39;;;;;;;18.15;16.05;;;6.10;99.90;;;;;;10485994;28;20899;-79
2023/01/24 17:25:41;;;;;;;21.13;18.90;;;6.20;99.90;;;;;;10501816;28;20324;-80
2023/01/24 17:30:43;;;;;;;22.13;19.80;;;6.20;99.90;;;;;;10495388;28;20200;-80
2023/01/24 17:35:47;;;;;;;22.27;19.30;;;6.20;99.90;;;;;;10486605;28;20262;-80
2023/01/24 17:40:51;;;;;;;22.63;20.25;;;6.10;99.90;;;;;;10500605;28;20647;-80
2023/01/24 17:45:54;;;;;;;22.83;19.70;;;6.10;99.90;;;;;;10494577;28;21875;-80
2023/01/24 17:50:58;;;;;;;21.67;19.48;;;6.20;99.90;;;;;;10498596;28;20547;-79
2023/01/24 17:56:00;;;;;;;24.00;20.90;;;6.20;99.90;;;;;;10482582;28;20607;-80
2023/01/24 18:01:02;;;;;;;24.83;22.02;;;6.20;99.90;;;;;;10497974;28;20680;-79
2023/01/24 18:06:07;;;;;;;21.90;19.60;;;6.20;99.90;;;;;;10488400;28;20228;-80
2023/01/24 18:11:10;;;;;;;24.67;20.83;;;6.20;99.90;;;;;;10486536;28;20258;-79
2023/01/24 18:16:14;;;;;;;25.17;22.15;;;6.10;99.90;;;;;;10495277;28;20224;-79
2023/01/24 18:21:19;;;;;;;24.42;21.35;;;6.20;99.90;;;;;;10486657;28;20228;-79
2023/01/24 18:26:22;;;;;;;25.30;22.30;;;6.30;99.90;;;;;;10471900;28;20222;-77
2023/01/24 18:31:24;;;;;;;24.57;22.07;;;6.30;99.90;;;;;;10489526;28;20212;-80
2023/01/24 18:36:28;;;;;;;30.17;22.97;;;6.20;99.90;;;;;;10488458;28;20350;-78
2023/01/24 18:41:30;;;;;;;25.37;22.80;;;6.10;99.90;;;;;;10497306;28;20379;-79
2023/01/24 18:46:33;;;;;;;32.33;28.90;;;6.00;99.90;;;;;;10508094;28;20232;-78
2023/01/24 18:51:36;;;;;;;26.27;23.40;;;5.90;99.90;;;;;;10502142;28;20205;-79
2023/01/24 18:56:39;;;;;;;25.30;22.43;;;5.90;99.90;;;;;;10494942;28;20616;-77
2023/01/24 19:01:41;;;;;;;24.47;22.13;;;5.90;99.90;;;;;;10500868;28;20244;-81
2023/01/24 19:06:46;;;;;;;28.37;24.07;;;5.90;99.90;;;;;;10474724;28;20231;-79
2023/01/24 19:11:48;;;;;;;26.63;23.70;;;5.90;99.90;;;;;;10490673;28;20192;-77
2023/01/24 19:16:50;;;;;;;28.13;25.07;;;5.90;99.90;;;;;;10506557;28;20224;-77
2023/01/24 19:21:57;;;;;;;27.10;24.30;;;5.80;99.90;;;;;;10493113;28;20291;-78
2023/01/24 19:26:59;;;;;;;29.63;26.43;;;5.80;99.90;;;;;;10506321;28;20220;-78
2023/01/24 19:32:01;;;;;;;27.80;23.03;;;5.80;99.90;;;;;;10489091;28;20746;-81
2023/01/24 19:37:08;;;;;;;26.30;23.50;;;5.80;99.90;;;;;;10550452;22;20245;-79
2023/01/24 19:42:10;;;;;;;26.90;23.77;;;5.90;99.90;;;;;;10555874;27;20313;-78
2023/01/24 19:47:12;;;;;;;25.40;22.80;;;5.80;99.90;;;;;;10603009;27;20243;-79
2023/01/24 19:52:15;;;;;;;26.80;24.00;;;5.90;99.90;;;;;;10595586;27;20281;-77
2023/01/24 19:57:17;;;;;;;29.00;24.50;;;5.90;99.90;;;;;;10610712;27;20230;-80
2023/01/24 20:02:19;;;;;;;26.60;22.80;;;6.10;99.90;;;;;;10630824;27;20607;-80
2023/01/24 20:07:23;;;;;;;27.30;24.37;;;6.20;99.90;;;;;;10612602;27;20271;-79
2023/01/24 20:12:25;;;;;;;27.17;24.30;;;6.10;99.90;;;;;;10638177;27;20282;-80
2023/01/24 20:17:27;;;;;;;26.40;23.57;;;6.20;99.90;;;;;;10627867;27;20270;-78
2023/01/24 20:22:31;;;;;;;30.87;25.63;;;6.20;99.90;;;;;;10614918;27;20221;-79
2023/01/24 20:27:33;;;;;;;27.73;24.73;;;6.10;99.90;;;;;;10640876;27;20271;-78
2023/01/24 20:32:35;;;;;;;30.63;24.33;;;6.10;99.90;;;;;;10661352;27;20190;-78
2023/01/24 20:37:38;;;;;;;27.13;24.33;;;6.00;99.90;;;;;;10632426;27;20709;-78
2023/01/24 20:42:42;;;;;;;25.10;22.40;;;6.10;99.90;;;;;;10594102;27;20752;-79
2023/01/24 20:47:44;;;;;;;26.00;23.23;;;6.20;99.90;;;;;;10606049;27;20228;-78
2023/01/24 20:52:47;;;;;;;30.93;25.60;;;6.10;99.90;;;;;;10609106;27;20809;-78
2023/01/24 20:57:49;;;;;;;25.23;22.40;;;6.10;99.90;;;;;;10632517;27;20980;-78
2023/01/24 21:02:52;;;;;;;25.10;22.40;;;6.10;99.90;;;;;;10625464;27;20250;-78
2023/01/24 21:07:57;;;;;;;25.83;22.67;;;6.00;99.90;;;;;;10601524;27;20736;-78
2023/01/24 21:13:00;;;;;;;26.08;23.25;;;6.00;99.90;;;;;;10628249;27;20194;-77
2023/01/24 21:18:02;;;;;;;25.20;22.50;;;6.20;99.90;;;;;;10625660;27;20225;-78
2023/01/24 21:23:06;;;;;;;27.63;23.27;;;6.20;99.90;;;;;;10601923;27;21560;-78
2023/01/24 21:28:08;;;;;;;24.90;22.30;;;6.10;99.90;;;;;;10603280;27;20230;-79
2023/01/24 21:33:10;;;;;;;26.60;23.70;;;6.00;99.90;;;;;;10637185;27;20616;-78
2023/01/24 21:38:14;;;;;;;30.80;26.13;;;5.90;99.90;;;;;;10612462;27;20411;-78
2023/01/24 21:43:16;;;;;;;28.70;25.73;;;5.90;99.90;;;;;;10610861;27;20586;-79
2023/01/24 21:49:04;;;;;;;24.83;22.23;;;5.90;99.90;;;;;;10638659;27;20218;-78
2023/01/24 21:59:01;;;;;;;26.13;23.00;;;5.90;99.90;;;;;;10615548;27;20269;-78
2023/01/24 22:04:03;;;;;;;28.30;25.17;;;5.80;99.90;;;;;;10616041;27;20985;-78
2023/01/24 22:09:06;;;;;;;26.02;23.25;;;5.80;99.90;;;;;;10640996;27;20713;-78
2023/01/24 22:14:14;;;;;;;26.87;24.17;;;5.90;99.90;;;;;;10614928;27;20205;-79
2023/01/24 22:19:19;;;;;;;28.77;25.80;;;5.90;99.90;;;;;;10640047;27;20226;-78
2023/01/24 22:24:34;;;;;;;30.30;26.07;;;5.80;99.90;;;;;;10640989;27;20703;-78
2023/01/24 22:29:36;;;;;;;31.85;23.35;;;5.80;99.90;;;;;;10613721;27;20673;-78
2023/01/24 22:34:39;;;;;;;28.60;24.27;;;6.00;99.90;;;;;;10613472;27;20207;-78
2023/01/24 22:39:42;;;;;;;25.87;23.27;;;5.90;99.90;;;;;;10635913;27;20291;-78
2023/01/24 22:44:44;;;;;;;25.45;22.85;;;5.90;99.90;;;;;;10637033;27;20279;-78
2023/01/24 22:49:47;;;;;;;28.92;25.60;;;5.90;99.90;;;;;;10638908;27;20225;-78
2023/01/24 22:54:50;;;;;;;28.23;25.23;;;6.10;99.90;;;;;;10639444;27;20201;-78
2023/01/24 22:59:52;;;;;;;28.50;24.07;;;6.10;99.90;;;;;;10616441;27;20224;-79
2023/01/24 23:04:54;;;;;;;29.63;25.83;;;5.90;99.90;;;;;;10602602;27;20230;-80
2023/01/24 23:09:58;;;;;;;27.90;24.90;;;5.90;99.90;;;;;;10643799;27;20222;-78
2023/01/24 23:25:42;;;;;;;31.07;26.30;;;5.90;99.90;;;;;;10619606;27;20206;-79
2023/01/24 23:30:50;;;;;;;27.15;24.25;;;5.80;99.90;;;;;;10643654;27;20995;-79
2023/01/24 23:35:54;;;;;;;29.48;24.42;;;6.00;99.90;;;;;;10617637;27;20206;-79
2023/01/24 23:40:57;;;;;;;35.70;26.83;;;6.10;99.90;;;;;;10614550;27;20309;-79
2023/01/24 23:46:00;;;;;;;27.63;24.70;;;6.30;99.90;;;;;;10612197;27;20856;-79
2023/01/24 23:51:02;;;;;;;27.40;24.40;;;6.20;99.90;;;;;;10628900;27;20209;-79
2023/01/24 23:56:09;;;;;;;26.40;23.60;;;6.10;99.90;;;;;;10640191;27;20225;-79
